• Join FlightAware (Why Join?)
  • Login
  • US Flag 
03:06PM EDT


 

Airport Tracker/Info


-or-


 

Live Flight TrackerFlight Track Log ✈ FRG308 ✈ 16-Aug-2013 ✈ KMKE - KMKE

Flight Track Log - Related Links

Times and Time Zones

All times are in EDT time to prevent confusion due to time zone crossing. See the FRG308 flight status page for this flight to view local times or setup timezone preferences in your user account.

Time Position Orientation Groundspeed Altitude Reporting Facility
EDT Latitude Longitude Course Direction KTS MPH feet Rate Location/Type
02:48PM 42.9333 -87.9000 90° East 124 143 1,400  Level KMKE
02:49PM 42.9333 -87.8667 90° East 147 169 2,700 780 Climbing KMKE
02:50PM 42.9833 -87.8667 360° North 201 231 3,000 60 Climbing KMKE
02:51PM 43.0000 -87.9167 295° West 175 201 2,900  Descending KMKE
02:52PM 42.9667 -87.9667 228° Southwest 168 193 3,000  Climbing KMKE
02:53PM 42.9500 -88.0167 246° West 166 191 3,000  Level KMKE
02:55PM 42.9167 -88.0833 236° Southwest 169 194 3,000 -60 Level KMKE
02:55PM 42.9000 -88.1333 246° West 167 192 2,900  Descending KMKE
02:56PM 42.8919 -88.1533 241° Southwest 166 191 3,000 -180 Climbing Chicago Center
02:57PM 42.9328 -88.1767 337° Northwest 164 189 2,700 -180 Descending Chicago Center
02:58PM 42.9742 -88.1586 18° North 169 194 2,700 -120 Level Chicago Center
02:59PM 43.0208 -88.1236 29° Northeast 165 190 2,500 -60 Descending Chicago Center
03:00PM 43.0558 -88.0889 36° Northeast 159 183 2,600 -180 Climbing Chicago Center
03:01PM 43.0936 -88.0528 35° Northeast 163 188 2,200 60 Descending Chicago Center
03:02PM 43.1269 -88.0467 North 177 204 2,800 480 Climbing Chicago Center
03:03PM 43.1378 -88.1050 284° West 160 184 3,300 540 Climbing Chicago Center
03:04PM 43.1486 -88.1722 282° West 157 181 4,000 300 Climbing Chicago Center
03:05PM 43.1117 -88.2197 223° Southwest 177 204 4,000 -60 Level Chicago Center
03:06PM 43.0722 -88.2614 218° Southwest 179 206 3,900 -300 Descending Chicago Center
03:07PM 43.0281 -88.2883 204° Southwest 177 204 3,500 -480 Descending Chicago Center
03:08PM 42.9806 -88.2833 176° South 179 206 3,000 -300 Descending Chicago Center
03:09PM 42.9683 -88.2144 104° East 166 191 2,900 -60 Descending Chicago Center
03:10PM 42.9883 -88.1614 63° Northeast 159 183 2,900 -300 Level Chicago Center
03:11PM 43.0231 -88.1214 40° Northeast 161 185 2,400 -420 Descending Chicago Center
03:12PM 43.0631 -88.0842 34° Northeast 170 196 2,100 -600 Descending Chicago Center
03:14PM 43.1000 -88.0464 37° Northeast 168 193 1,200  Descending Chicago Center
03:15PM 43.1356 -88.0100 37° Northeast 149 171 2,100 960 Climbing Chicago Center
03:16PM 43.1592 -88.0447 313° West 148 170 3,200 840 Climbing Chicago Center
03:17PM 43.1564 -88.1036 266° West 151 174 3,900 300 Climbing Chicago Center
03:18PM 43.1389 -88.1644 249° West 165 190 3,900  Level Chicago Center
03:19PM 43.1283 -88.2144 254° West 146 168 3,900 60 Level Chicago Center
03:20PM 43.1203 -88.2506 253° West 110 127 4,100 60 Climbing Chicago Center
03:21PM 43.1122 -88.2947 256° West 104 120 4,100 -120 Level Chicago Center
03:22PM 43.1297 -88.3225 311° West 99 114 3,900 -60 Descending Chicago Center
03:23PM 43.1439 -88.3064 40° Northeast 102 117 4,000  Climbing Chicago Center
03:24PM 43.1200 -88.2864 149° Southeast 99 114 4,000  Level Chicago Center
03:25PM 43.0892 -88.3081 207° Southwest 141 162 4,000 -60 Level Chicago Center
03:26PM 43.1136 -88.3544 306° West 171 197 3,900  Descending Chicago Center
03:27PM 43.1300 -88.3397 33° Northeast 172 198 4,000  Climbing Chicago Center
03:28PM 43.1478 -88.3286 25° Northeast 189 217 4,000  Level Chicago Center
03:29PM 43.1667 -88.3697 302° West 171 197 4,000 -60 Level Chicago Center
03:30PM 43.1675 -88.3733 288° West 182 209 3,900  Descending Chicago Center
03:31PM 43.1908 -88.3314 53° Northeast 175 201 4,000  Climbing Chicago Center
03:32PM 43.1469 -88.2972 150° Southeast 181 208 3,900 -60 Descending Chicago Center
03:33PM 43.1022 -88.2781 163° South 172 198 3,900  Level Chicago Center
03:34PM 43.0983 -88.3244 263° West 157 181 3,900  Level Chicago Center
03:35PM 43.1350 -88.3539 330° Northwest 152 175 3,900  Level Chicago Center
03:36PM 43.1511 -88.3122 62° Northeast 163 188 3,900  Level Chicago Center
03:37PM 43.1119 -88.2842 152° Southeast 161 185 3,900  Level Chicago Center
03:38PM 43.0869 -88.3164 223° Southwest 160 184 3,900 -180 Level Chicago Center
03:39PM 43.1189 -88.3608 315° West 162 186 3,600 -480 Descending Chicago Center
03:40PM 43.1647 -88.3772 345° North 174 200 3,000 -300 Descending Chicago Center
03:41PM 43.1575 -88.3278 101° East 161 185 3,000 -120 Level Chicago Center
03:43PM 43.1183 -88.2819 139° Southeast 159 183 2,800 -420 Descending Chicago Center
03:44PM 43.0758 -88.2581 158° South 161 185 2,200 -480 Descending Chicago Center
03:45PM 43.0339 -88.2325 156° South 162 186 1,900 360 Descending Chicago Center
03:46PM 43.0214 -88.2067 123° Southeast 147 169 3,000 480 Climbing Chicago Center
03:47PM 43.0622 -88.2044 North 149 171 3,000 480 Level Chicago Center
03:48PM 43.0914 -88.2456 314° West 151 174 4,000 480 Climbing Chicago Center
03:49PM 43.1022 -88.3028 285° West 154 177 4,000  Level Chicago Center
03:50PM 43.1131 -88.3586 285° West 152 175 4,000 -120 Level Chicago Center
03:51PM 43.1233 -88.4153 284° West 151 174 3,800 -540 Descending Chicago Center
03:52PM 43.1128 -88.4767 257° West 173 199 3,000 -480 Descending Chicago Center
03:53PM 43.0764 -88.4519 154° Southeast 183 211 2,900 -180 Descending Chicago Center
03:54PM 43.0647 -88.3836 103° East 161 185 2,700 -480 Descending Chicago Center
03:55PM 43.0553 -88.3269 103° East 156 180 2,000 -720 Descending Chicago Center
03:56PM 43.0475 -88.2736 101° East 146 168 1,300  Descending Chicago Center
03:57PM 43.0383 -88.2208 103° East 144 166 2,000 780 Climbing Chicago Center
03:58PM 42.9894 -88.2144 175° South 151 174 3,000 420 Climbing Chicago Center
03:59PM 42.9467 -88.2106 176° South 155 178 2,900 -60 Descending Chicago Center
04:00PM 42.9058 -88.1933 163° South 153 176 2,900  Level Chicago Center
04:01PM 42.8644 -88.1786 165° South 153 176 2,900  Level Chicago Center
04:02PM 42.8203 -88.1800 181° South 155 178 2,900  Level Chicago Center
04:03PM 42.7944 -88.2197 228° Southwest 160 184 2,900  Level Chicago Center
04:04PM 42.8319 -88.2594 322° Northwest 151 174 3,000  Climbing Chicago Center
04:05PM 42.8589 -88.2272 41° Northeast 135 155 3,000 -120 Level Chicago Center
04:07PM 42.8911 -88.1200 68° East 152 175 2,700 -120 Descending Chicago Center
04:08PM 42.9025 -88.0653 74° East 150 173 2,800 -360 Climbing Chicago Center
04:09PM 42.9169 -88.0067 71° East 142 163 2,000 -720 Descending Chicago Center
04:10PM 42.9278 -87.9661 70° East 139 160 1,400 -600 Descending Chicago Center
04:11PM 42.9422 -87.9078 71° East 136 157 800 -600 Descending Chicago Center